Braintree Highlands, Massachusetts
Current Conditions -  °F | °C
As of 9:53 AM on Saturday 25 Oct 2014 (Local Time) from KOWD Reporting Station
Clear Clear  
Wind Chill: 54°   Ceiling: Unl
Heat Index: 54°   Visibility: 10mi
Dew Point: 42°   Wind: 8mph
Humidity: 64%   Direction: 260°W
Pressure: 29.74"   Gusts: NA
Location:  42.2036°N, 71.0017°W
Report Text: KOWD 251353Z 26007KT 10SM CLR 12/06 A2974 RMK AO2 SLP070 T01220056
Loading
Personal Weather Stations






























Interactive Weather Map
Tropical Storm Tracking
New forecast layout! Learn more

10-Day Weather Forecast

Advertisements
Track Severe Weather on mobile